createdAt,value
2023-01-05T06:56:51.536Z,98171.25
2023-01-05T07:01:53.311Z,98172.75
2023-01-05T07:06:54.992Z,98160.88
2023-01-05T07:11:56.943Z,98176.44
2023-01-05T07:16:58.721Z,98194.34
2023-01-05T07:22:00.586Z,98200.13
2023-01-05T07:27:07.743Z,98201.59
2023-01-05T07:32:11.431Z,98186.50
2023-01-05T07:37:13.707Z,98203.00
2023-01-05T07:42:15.583Z,98203.31
2023-01-05T07:47:17.283Z,98201.81
2023-01-05T07:52:18.914Z,98201.91
2023-01-05T07:57:20.764Z,98201.69
2023-01-05T08:02:22.570Z,98211.19
2023-01-05T08:07:24.329Z,98210.19
2023-01-05T08:12:27.320Z,98215.84
2023-01-05T08:17:28.983Z,98211.44
2023-01-05T08:22:30.609Z,98228.38
2023-01-05T08:27:32.311Z,98242.97
2023-01-05T08:32:34.002Z,98242.53
2023-01-05T08:37:35.714Z,98258.44
2023-01-05T08:42:37.425Z,98274.53
2023-01-05T08:47:39.047Z,98279.19
2023-01-05T08:52:41.478Z,98281.25
2023-01-05T08:57:43.167Z,98283.56
2023-01-05T09:02:45.056Z,98299.78
2023-01-05T09:07:46.919Z,98301.06
2023-01-05T09:12:48.727Z,98320.31
2023-01-05T09:17:51.228Z,98308.94
2023-01-05T09:22:53.127Z,98324.78
2023-01-05T09:27:55.214Z,98333.31
2023-01-05T09:32:56.937Z,98323.81
2023-01-05T09:37:58.684Z,98339.38
2023-01-05T09:43:00.626Z,98347.63
2023-01-05T09:48:02.427Z,98351.28
2023-01-05T09:53:05.722Z,98343.44
2023-01-05T09:58:14.181Z,98357.78
2023-01-05T10:03:53.615Z,98358.28
2023-01-05T10:08:47.479Z,98358.53
2023-01-05T10:14:02.378Z,98347.09
2023-01-05T10:19:04.695Z,98342.69
2023-01-05T10:24:27.480Z,98345.34
2023-01-05T10:29:43.318Z,98348.53
2023-01-05T10:34:57.483Z,98334.22
2023-01-05T10:40:18.310Z,98342.53
2023-01-05T10:45:21.454Z,98346.19
2023-01-05T10:50:41.280Z,98341.06
2023-01-05T10:56:01.140Z,98352.41
2023-01-05T11:01:19.608Z,98383.66
2023-01-05T11:06:25.848Z,98359.34
2023-01-05T11:11:28.746Z,98357.41
2023-01-05T11:16:34.170Z,98377.25
2023-01-05T11:21:35.831Z,98370.94
2023-01-05T11:26:48.192Z,98349.03
2023-01-05T11:31:57.730Z,98349.16
2023-01-05T11:37:07.820Z,98361.78
2023-01-05T11:42:14.789Z,98357.63
2023-01-05T11:47:23.290Z,98361.28
2023-01-05T11:52:40.485Z,98353.41
2023-01-05T11:57:42.216Z,98361.28
2023-01-05T12:03:21.011Z,98348.75
2023-01-05T12:15:42.442Z,98359.88
2023-01-05T12:21:04.165Z,98378.69
2023-01-05T12:26:21.005Z,98371.53
2023-01-05T12:37:30.373Z,98374.19
2023-01-05T12:43:02.443Z,98374.06
2023-01-05T12:48:10.027Z,98402.06
2023-01-05T12:53:17.766Z,98404.00
2023-01-05T12:58:29.764Z,98405.59
2023-01-05T13:03:49.430Z,98421.63
2023-01-05T13:09:18.857Z,98429.19
2023-01-05T13:15:24.375Z,98428.94
2023-01-05T13:20:52.006Z,98418.34
2023-01-05T13:26:07.077Z,98432.31
2023-01-05T13:31:33.318Z,98439.63
2023-01-05T13:36:53.696Z,98433.31
2023-01-05T13:42:09.272Z,98431.47
2023-01-05T13:47:27.040Z,98435.84
2023-01-05T13:52:58.066Z,98433.53
2023-01-05T13:58:01.216Z,98440.28
2023-01-05T14:03:14.102Z,98453.22
2023-01-05T14:08:28.962Z,98471.44
2023-01-05T14:14:08.386Z,98479.34
2023-01-05T14:19:23.549Z,98474.38
2023-01-05T14:29:44.227Z,98484.34
2023-01-05T14:34:51.939Z,98475.72
2023-01-05T14:40:00.410Z,98469.28
2023-01-05T14:45:22.429Z,98482.91
2023-01-05T14:50:26.304Z,98489.25
2023-01-05T14:55:40.902Z,98504.06
2023-01-05T15:00:57.662Z,98478.03
2023-01-05T15:06:08.779Z,98479.25
2023-01-05T15:11:41.403Z,98492.16
2023-01-05T15:17:48.367Z,98480.91
2023-01-05T15:23:29.034Z,98497.81
2023-01-05T15:28:48.635Z,98499.88
2023-01-05T15:34:06.853Z,98496.44
2023-01-05T15:39:29.368Z,98500.47
2023-01-05T15:44:38.056Z,98508.03
2023-01-05T15:49:40.473Z,98527.63
2023-01-05T15:54:42.096Z,98523.03
2023-01-05T15:59:48.747Z,98543.00
2023-01-05T16:05:16.699Z,98551.13
2023-01-05T16:10:28.769Z,98552.63
2023-01-05T16:15:34.052Z,98557.78
2023-01-05T16:20:39.944Z,98569.53
2023-01-05T16:26:00.199Z,98568.88
2023-01-05T16:31:13.840Z,98561.66
2023-01-05T16:36:22.853Z,98570.16
2023-01-05T16:41:26.736Z,98572.94
2023-01-05T16:46:35.478Z,98579.16
2023-01-05T16:51:39.786Z,98576.44
2023-01-05T16:57:01.615Z,98553.28
2023-01-05T17:02:03.382Z,98584.44
2023-01-05T17:07:05.040Z,98593.44
2023-01-05T17:12:07.716Z,98565.34
2023-01-05T17:17:12.331Z,98544.84
2023-01-05T17:22:13.925Z,98571.53
2023-01-05T17:27:15.541Z,98576.63
2023-01-05T17:32:17.269Z,98589.50
2023-01-05T17:37:18.878Z,98603.03
2023-01-05T17:42:38.775Z,98580.28
2023-01-05T17:47:40.637Z,98619.34
2023-01-05T17:52:50.270Z,98618.06
2023-01-05T17:57:55.497Z,98623.59
2023-01-05T18:03:15.228Z,98634.00
2023-01-05T18:08:28.349Z,98640.84
2023-01-05T18:13:37.010Z,98636.59
2023-01-05T18:18:49.396Z,98626.97
2023-01-05T18:23:51.469Z,98623.00
2023-01-05T18:28:53.857Z,98618.41
2023-01-05T18:33:55.575Z,98622.31
2023-01-05T18:38:57.193Z,98624.22
2023-01-05T18:43:59.074Z,98638.09
2023-01-05T18:49:00.768Z,98623.06
2023-01-05T18:54:02.483Z,98629.78
2023-01-05T18:59:05.174Z,98629.00
2023-01-05T19:04:06.998Z,98628.16
2023-01-05T19:09:11.152Z,98637.69
2023-01-05T19:14:14.490Z,98653.88
2023-01-05T19:19:16.541Z,98659.31
2023-01-05T19:24:20.985Z,98659.69
2023-01-05T19:29:24.467Z,98659.53
2023-01-05T19:34:26.209Z,98670.22
2023-01-05T19:39:28.155Z,98674.97
2023-01-05T19:44:29.969Z,98675.88
2023-01-05T19:49:31.667Z,98688.84
2023-01-05T19:54:33.429Z,98691.19
2023-01-05T19:59:35.141Z,98678.09
2023-01-05T20:04:36.905Z,98661.91
2023-01-05T20:09:38.722Z,98688.56
2023-01-05T20:14:41.470Z,98685.34
2023-01-05T20:19:43.181Z,98683.41
2023-01-05T20:24:44.904Z,98700.69
2023-01-05T20:29:46.517Z,98703.97
2023-01-05T20:34:59.290Z,98725.75
2023-01-05T20:40:02.551Z,98726.81
2023-01-05T20:45:06.215Z,98729.91
2023-01-05T20:50:08.810Z,98731.94
2023-01-05T20:55:10.415Z,98723.75
2023-01-05T21:00:14.663Z,98741.28
2023-01-05T21:05:16.580Z,98755.47
2023-01-05T21:10:18.467Z,98749.72
2023-01-05T21:15:20.160Z,98750.84
2023-01-05T21:20:21.932Z,98754.97
